createdAt,value
2022-11-28T00:00:46.182Z,97.40
2022-11-28T00:04:51.971Z,99.70
2022-11-28T00:08:54.951Z,99.40
2022-11-28T00:12:56.776Z,99.90
2022-11-28T00:16:58.605Z,99.90
2022-11-28T00:21:09.690Z,99.90
2022-11-28T00:25:11.510Z,99.90
2022-11-28T00:29:13.363Z,99.90
2022-11-28T00:33:15.177Z,99.90
2022-11-28T00:37:17.016Z,99.90
2022-11-28T00:41:24.618Z,99.90
2022-11-28T00:45:26.569Z,99.90
2022-11-28T00:49:28.449Z,99.20
2022-11-28T00:53:30.822Z,99.90
2022-11-28T00:57:32.689Z,99.90
2022-11-28T01:01:38.185Z,99.90
2022-11-28T01:05:41.792Z,99.90
2022-11-28T01:09:43.903Z,99.90
2022-11-28T01:13:45.819Z,97.90
2022-11-28T01:17:47.825Z,99.70
2022-11-28T01:21:50.101Z,99.90
2022-11-28T01:25:51.981Z,98.90
2022-11-28T01:29:53.909Z,98.40
2022-11-28T01:33:56.744Z,96.50
2022-11-28T01:37:58.595Z,99.40
2022-11-28T01:42:00.425Z,99.00
2022-11-28T01:46:03.588Z,96.80
2022-11-28T01:50:07.108Z,95.20
2022-11-28T01:54:08.999Z,97.80
2022-11-28T01:58:12.745Z,97.80
2022-11-28T02:02:21.796Z,97.10
2022-11-28T02:06:25.135Z,96.90
2022-11-28T02:10:36.245Z,97.70
2022-11-28T02:15:06.651Z,96.90
2022-11-28T02:19:36.691Z,98.00
2022-11-28T02:23:57.005Z,99.20
2022-11-28T02:28:26.096Z,99.10
2022-11-28T02:33:02.802Z,99.20
2022-11-28T02:37:12.479Z,97.80
2022-11-28T02:41:43.527Z,98.20
2022-11-28T02:45:53.335Z,97.70
2022-11-28T02:50:17.190Z,99.10
2022-11-28T02:54:22.213Z,98.70
2022-11-28T02:58:24.282Z,99.40
2022-11-28T03:02:30.337Z,99.90
2022-11-28T03:06:53.343Z,99.60
2022-11-28T03:11:19.811Z,99.90
2022-11-28T03:15:28.936Z,99.90
2022-11-28T03:19:32.853Z,99.90
2022-11-28T03:23:56.608Z,99.90
2022-11-28T03:28:18.636Z,99.90
2022-11-28T03:32:25.439Z,99.90
2022-11-28T03:36:31.668Z,99.00
2022-11-28T03:40:39.397Z,99.90
2022-11-28T03:45:03.914Z,99.90
2022-11-28T03:49:09.506Z,99.90
2022-11-28T03:53:26.719Z,99.90
2022-11-28T03:57:44.895Z,99.90
2022-11-28T04:01:52.671Z,99.90
2022-11-28T04:05:57.447Z,99.90
2022-11-28T04:10:15.021Z,99.90
2022-11-28T04:14:26.493Z,99.90
2022-11-28T04:19:00.464Z,99.90
2022-11-28T04:23:08.953Z,99.90
2022-11-28T04:27:17.486Z,99.90
2022-11-28T04:31:22.535Z,99.90
2022-11-28T04:35:33.830Z,99.70
2022-11-28T04:39:37.679Z,99.30
2022-11-28T04:43:51.972Z,98.90
2022-11-28T04:47:54.592Z,98.70
2022-11-28T04:52:22.182Z,99.90
2022-11-28T04:57:28.623Z,97.90
2022-11-28T05:01:32.442Z,99.90
2022-11-28T05:05:43.636Z,99.90
2022-11-28T05:09:45.453Z,99.90
2022-11-28T05:13:47.852Z,99.30
2022-11-28T05:17:49.667Z,99.90
2022-11-28T05:21:53.246Z,99.90
2022-11-28T05:25:55.062Z,99.10
2022-11-28T05:29:56.895Z,99.60
2022-11-28T05:33:58.797Z,99.90
2022-11-28T05:38:00.587Z,99.90
2022-11-28T05:42:02.443Z,99.90
2022-11-28T05:46:07.441Z,99.90
2022-11-28T05:50:09.694Z,99.90
2022-11-28T05:54:12.065Z,99.90
2022-11-28T05:58:13.949Z,99.70
2022-11-28T06:02:15.856Z,99.90
2022-11-28T06:06:20.294Z,99.90
2022-11-28T06:10:22.661Z,99.90
2022-11-28T06:14:24.504Z,99.90
2022-11-28T06:18:26.524Z,99.90
2022-11-28T06:22:28.351Z,99.90
2022-11-28T06:26:30.331Z,99.90
2022-11-28T06:30:32.177Z,99.90
2022-11-28T06:34:34.649Z,99.90
2022-11-28T06:38:36.597Z,99.70
2022-11-28T06:42:38.526Z,99.90
2022-11-28T06:46:40.405Z,99.90
2022-11-28T06:50:42.233Z,99.90
2022-11-28T06:54:44.760Z,99.90
2022-11-28T06:58:47.201Z,99.90
2022-11-28T07:02:49.080Z,99.90
2022-11-28T07:06:50.915Z,99.90
2022-11-28T07:10:52.745Z,99.90
2022-11-28T07:14:54.647Z,99.90
2022-11-28T07:18:58.093Z,99.90
2022-11-28T07:22:59.932Z,99.90
2022-11-28T07:27:01.756Z,99.60
2022-11-28T07:31:12.769Z,99.80
2022-11-28T07:35:14.649Z,99.90
2022-11-28T07:39:17.604Z,99.90
2022-11-28T07:43:19.418Z,99.90
2022-11-28T07:47:21.948Z,99.90
2022-11-28T07:51:27.012Z,99.40
2022-11-28T07:55:28.917Z,99.60
2022-11-28T07:59:30.912Z,99.10
2022-11-28T08:03:32.738Z,98.30
2022-11-28T08:07:34.652Z,98.10
2022-11-28T08:11:36.706Z,97.40
2022-11-28T08:15:39.996Z,97.00
2022-11-28T08:19:41.862Z,95.70
2022-11-28T08:23:45.307Z,93.80
2022-11-28T08:27:47.145Z,93.30
2022-11-28T08:31:49.004Z,91.50
2022-11-28T08:35:52.097Z,90.70
2022-11-28T08:39:53.936Z,91.40
2022-11-28T08:43:55.806Z,90.80
2022-11-28T08:47:59.076Z,91.00
2022-11-28T08:52:00.871Z,90.80
2022-11-28T08:56:03.359Z,90.30
2022-11-28T09:00:06.333Z,89.80
2022-11-28T09:04:08.251Z,89.10
2022-11-28T09:08:11.926Z,90.00
2022-11-28T09:12:13.926Z,91.20
2022-11-28T09:16:16.403Z,91.20
2022-11-28T09:20:18.321Z,91.40
2022-11-28T09:24:20.148Z,91.50
2022-11-28T09:28:21.988Z,91.80
2022-11-28T09:32:23.901Z,91.00
2022-11-28T09:36:25.774Z,91.30
2022-11-28T09:40:44.718Z,90.10
2022-11-28T09:45:00.434Z,89.90
2022-11-28T09:49:08.230Z,90.30
2022-11-28T09:53:40.442Z,90.60
2022-11-28T09:57:50.262Z,90.30
2022-11-28T10:02:17.900Z,90.00
2022-11-28T10:06:33.875Z,90.60
2022-11-28T10:10:54.271Z,89.20
2022-11-28T10:15:24.661Z,89.70
2022-11-28T10:19:54.266Z,89.90
2022-11-28T10:24:07.090Z,90.00
2022-11-28T10:28:39.694Z,90.50
2022-11-28T10:32:44.576Z,90.20
2022-11-28T10:36:56.493Z,90.10
2022-11-28T10:41:12.804Z,90.60
2022-11-28T10:45:36.724Z,90.60
2022-11-28T10:49:54.958Z,90.30
2022-11-28T10:54:05.503Z,90.00
2022-11-28T10:58:39.909Z,87.80
2022-11-28T11:02:51.779Z,88.70
2022-11-28T11:07:19.106Z,89.10
2022-11-28T11:11:30.471Z,88.80
2022-11-28T11:15:33.772Z,88.20
2022-11-28T11:19:38.859Z,85.40
2022-11-28T11:23:40.865Z,85.70
2022-11-28T11:27:54.921Z,85.80
2022-11-28T11:32:03.731Z,83.40
2022-11-28T11:36:24.434Z,82.20
2022-11-28T11:40:29.271Z,82.90
2022-11-28T11:44:34.929Z,83.90
2022-11-28T11:48:51.185Z,83.70
2022-11-28T11:53:12.524Z,84.50
2022-11-28T11:57:32.508Z,84.50
2022-11-28T12:01:36.404Z,83.30
2022-11-28T12:10:23.927Z,86.00
2022-11-28T12:14:33.335Z,87.60
2022-11-28T12:18:44.077Z,87.20
2022-11-28T12:23:06.879Z,86.20
2022-11-28T12:27:43.890Z,86.50
2022-11-28T12:31:51.887Z,85.80
2022-11-28T12:36:32.753Z,87.20
2022-11-28T12:40:43.970Z,88.50
2022-11-28T12:45:27.359Z,88.70
2022-11-28T12:49:38.625Z,89.10
2022-11-28T12:53:55.478Z,88.20
2022-11-28T12:58:04.127Z,87.40
2022-11-28T13:02:14.309Z,88.60
2022-11-28T13:06:30.062Z,87.60
2022-11-28T13:10:59.779Z,89.50
2022-11-28T13:15:18.000Z,86.90
2022-11-28T13:19:44.254Z,85.50
2022-11-28T13:23:48.807Z,85.10
2022-11-28T13:28:04.166Z,85.00
2022-11-28T13:32:39.660Z,82.00
2022-11-28T13:46:01.458Z,83.10
2022-11-28T13:50:22.524Z,82.20
2022-11-28T13:54:24.382Z,83.00
2022-11-28T13:58:41.559Z,83.60
2022-11-28T14:02:51.249Z,84.80
2022-11-28T14:07:00.000Z,86.60
2022-11-28T14:11:32.805Z,87.50
2022-11-28T14:16:13.281Z,86.20
2022-11-28T14:20:28.825Z,85.90
2022-11-28T14:25:12.312Z,87.30
2022-11-28T14:29:36.974Z,88.00
2022-11-28T14:33:42.651Z,87.60
2022-11-28T14:37:52.805Z,87.00
2022-11-28T14:42:06.852Z,89.20
2022-11-28T14:46:28.380Z,87.40
2022-11-28T14:50:30.468Z,90.20
2022-11-28T14:54:35.580Z,87.90
2022-11-28T14:58:38.218Z,90.80
2022-11-28T15:03:01.695Z,91.10
2022-11-28T15:07:07.850Z,91.80
2022-11-28T15:12:08.398Z,92.20
2022-11-28T15:16:15.660Z,92.20
2022-11-28T15:20:38.908Z,93.00
2022-11-28T15:24:40.948Z,93.10
2022-11-28T15:28:43.647Z,93.80
2022-11-28T15:32:46.129Z,92.60
2022-11-28T15:36:53.104Z,92.60
2022-11-28T15:40:56.121Z,92.50
2022-11-28T15:45:08.588Z,92.40
2022-11-28T15:49:43.230Z,92.60
2022-11-28T15:53:45.015Z,93.20
2022-11-28T15:57:46.849Z,92.80
2022-11-28T16:01:48.946Z,93.30
2022-11-28T16:05:53.186Z,93.50
2022-11-28T16:10:01.920Z,93.50
2022-11-28T16:14:11.354Z,91.50
2022-11-28T16:18:16.857Z,92.30
2022-11-28T16:22:20.846Z,93.70
2022-11-28T16:26:37.047Z,95.10
2022-11-28T16:30:43.115Z,95.60
2022-11-28T16:34:53.035Z,96.00
2022-11-28T16:39:06.812Z,95.70
2022-11-28T16:43:25.041Z,96.00
2022-11-28T16:47:29.777Z,95.70
2022-11-28T16:51:35.298Z,95.60
2022-11-28T16:55:38.530Z,95.30
2022-11-28T16:59:41.479Z,95.30
2022-11-28T17:03:49.620Z,95.40
2022-11-28T17:07:52.943Z,95.60
2022-11-28T17:12:07.929Z,95.50
2022-11-28T17:16:24.192Z,95.80
2022-11-28T17:20:26.731Z,95.60
2022-11-28T17:24:33.517Z,96.20
2022-11-28T17:28:35.762Z,95.90
2022-11-28T17:32:37.595Z,95.10
2022-11-28T17:36:39.459Z,95.20
2022-11-28T17:40:42.337Z,96.10
2022-11-28T17:44:44.313Z,95.40
2022-11-28T17:48:46.262Z,95.30
2022-11-28T17:52:48.116Z,95.90
2022-11-28T17:56:51.579Z,95.90
2022-11-28T18:00:59.922Z,95.90
2022-11-28T18:05:02.553Z,95.60
2022-11-28T18:09:11.685Z,96.40
2022-11-28T18:13:16.411Z,97.20
2022-11-28T18:17:18.299Z,97.90
2022-11-28T18:21:20.168Z,94.60
2022-11-28T18:25:22.247Z,94.70
2022-11-28T18:29:24.125Z,94.00
2022-11-28T18:33:25.930Z,94.20
2022-11-28T18:37:27.795Z,94.10
2022-11-28T18:41:30.070Z,94.50
2022-11-28T18:45:33.378Z,94.70
2022-11-28T18:49:35.242Z,95.00
2022-11-28T18:53:37.123Z,95.10
2022-11-28T18:57:39.257Z,95.00
2022-11-28T19:01:41.438Z,94.90
2022-11-28T19:05:43.348Z,95.10
2022-11-28T19:09:45.664Z,95.60
2022-11-28T19:13:48.445Z,95.60
2022-11-28T19:17:50.361Z,95.30
2022-11-28T19:21:52.230Z,95.40
2022-11-28T19:25:54.061Z,96.10
2022-11-28T19:29:55.912Z,95.00
2022-11-28T19:34:01.229Z,95.40
2022-11-28T19:38:03.569Z,96.30
2022-11-28T19:42:05.484Z,96.80
2022-11-28T19:46:08.369Z,97.00
2022-11-28T19:50:10.526Z,96.80
2022-11-28T19:54:12.377Z,96.50
2022-11-28T19:58:14.293Z,97.10
2022-11-28T20:02:16.216Z,98.10
2022-11-28T20:06:21.852Z,96.20
2022-11-28T20:10:24.048Z,95.70
2022-11-28T20:14:26.549Z,95.50
2022-11-28T20:18:28.387Z,95.10
2022-11-28T20:22:30.855Z,95.10
2022-11-28T20:26:37.024Z,95.70
2022-11-28T20:30:38.939Z,95.10
2022-11-28T20:34:40.754Z,95.00
2022-11-28T20:38:42.630Z,94.50
2022-11-28T20:42:44.498Z,94.40
2022-11-28T20:46:46.562Z,95.00
2022-11-28T20:50:48.390Z,95.40
2022-11-28T20:54:50.190Z,95.80
2022-11-28T20:58:52.631Z,96.60
2022-11-28T21:02:54.533Z,96.50
2022-11-28T21:06:56.381Z,96.20
2022-11-28T21:10:58.305Z,95.80
2022-11-28T21:15:00.168Z,95.40
2022-11-28T21:19:07.784Z,95.30
2022-11-28T21:23:10.801Z,96.00
2022-11-28T21:27:12.625Z,96.50
2022-11-28T21:31:24.022Z,96.40
2022-11-28T21:35:25.899Z,96.60
2022-11-28T21:39:28.126Z,96.70
2022-11-28T21:43:30.287Z,96.60
2022-11-28T21:47:32.130Z,97.10
2022-11-28T21:51:33.945Z,96.80
2022-11-28T21:55:37.043Z,97.10
2022-11-28T21:59:38.882Z,95.90
2022-11-28T22:03:41.937Z,95.80
2022-11-28T22:07:43.796Z,96.10
2022-11-28T22:11:45.647Z,97.00
2022-11-28T22:15:47.502Z,96.20
2022-11-28T22:19:51.214Z,96.60
2022-11-28T22:23:53.129Z,96.40
2022-11-28T22:27:55.033Z,96.50
2022-11-28T22:31:56.952Z,96.20
2022-11-28T22:36:11.394Z,96.10
2022-11-28T22:40:14.035Z,96.30
2022-11-28T22:44:15.913Z,96.70
2022-11-28T22:48:17.729Z,96.90
2022-11-28T22:52:19.611Z,96.60
2022-11-28T22:56:22.021Z,95.90
2022-11-28T23:00:23.894Z,96.30
2022-11-28T23:04:25.728Z,96.30
2022-11-28T23:08:29.958Z,96.10
2022-11-28T23:12:31.805Z,96.60
2022-11-28T23:16:38.884Z,97.10
2022-11-28T23:20:40.792Z,96.70
2022-11-28T23:24:42.853Z,97.00
2022-11-28T23:28:45.846Z,96.80
2022-11-28T23:32:47.668Z,97.20
2022-11-28T23:36:49.532Z,97.10
2022-11-28T23:40:56.146Z,97.20
2022-11-28T23:44:58.005Z,97.20
2022-11-28T23:48:59.858Z,97.10
2022-11-28T23:53:01.748Z,96.80
2022-11-28T23:57:03.996Z,97.00
